sensor_id;sensor_type;location;lat;lon;timestamp;temperature;humidity
24618;DHT22;12762;51.730;5.356;2022-08-19T00:02:01;20.40;68.60
24618;DHT22;12762;51.730;5.356;2022-08-19T00:04:34;20.40;69.30
24618;DHT22;12762;51.730;5.356;2022-08-19T00:07:06;20.30;69.60
24618;DHT22;12762;51.730;5.356;2022-08-19T00:09:33;20.30;69.00
24618;DHT22;12762;51.730;5.356;2022-08-19T00:12:00;20.30;69.50
24618;DHT22;12762;51.730;5.356;2022-08-19T00:14:28;20.30;70.00
24618;DHT22;12762;51.730;5.356;2022-08-19T00:16:59;20.30;69.80
24618;DHT22;12762;51.730;5.356;2022-08-19T00:19:25;20.20;69.50
24618;DHT22;12762;51.730;5.356;2022-08-19T00:21:53;20.20;69.80
24618;DHT22;12762;51.730;5.356;2022-08-19T00:24:20;20.20;70.80
24618;DHT22;12762;51.730;5.356;2022-08-19T00:26:47;20.20;71.20
24618;DHT22;12762;51.730;5.356;2022-08-19T00:29:17;20.20;71.50
24618;DHT22;12762;51.730;5.356;2022-08-19T00:31:44;20.20;72.20
24618;DHT22;12762;51.730;5.356;2022-08-19T00:34:12;20.20;72.50
24618;DHT22;12762;51.730;5.356;2022-08-19T00:36:42;20.20;72.70
24618;DHT22;12762;51.730;5.356;2022-08-19T00:39:10;20.10;73.00
24618;DHT22;12762;51.730;5.356;2022-08-19T00:41:37;20.10;73.10
24618;DHT22;12762;51.730;5.356;2022-08-19T00:44:11;20.10;73.40
24618;DHT22;12762;51.730;5.356;2022-08-19T00:46:42;20.10;73.60
24618;DHT22;12762;51.730;5.356;2022-08-19T00:49:16;20.10;74.50
24618;DHT22;12762;51.730;5.356;2022-08-19T00:51:48;20.00;73.60
24618;DHT22;12762;51.730;5.356;2022-08-19T00:54:17;20.00;73.60
24618;DHT22;12762;51.730;5.356;2022-08-19T00:56:54;20.00;73.40
24618;DHT22;12762;51.730;5.356;2022-08-19T00:59:21;20.00;73.00
24618;DHT22;12762;51.730;5.356;2022-08-19T01:02:08;20.00;73.30
24618;DHT22;12762;51.730;5.356;2022-08-19T01:04:38;19.90;73.40
24618;DHT22;12762;51.730;5.356;2022-08-19T01:07:05;19.90;73.90
24618;DHT22;12762;51.730;5.356;2022-08-19T01:09:32;19.90;74.20
24618;DHT22;12762;51.730;5.356;2022-08-19T01:12:00;19.90;74.50
24618;DHT22;12762;51.730;5.356;2022-08-19T01:14:27;19.90;74.80
24618;DHT22;12762;51.730;5.356;2022-08-19T01:16:55;19.90;74.90
24618;DHT22;12762;51.730;5.356;2022-08-19T01:19:31;19.80;75.00
24618;DHT22;12762;51.730;5.356;2022-08-19T01:22:31;19.80;75.20
24618;DHT22;12762;51.730;5.356;2022-08-19T01:25:01;19.80;75.30
24618;DHT22;12762;51.730;5.356;2022-08-19T01:27:46;19.80;75.40
24618;DHT22;12762;51.730;5.356;2022-08-19T01:30:19;19.70;75.40
24618;DHT22;12762;51.730;5.356;2022-08-19T01:32:49;19.70;75.60
24618;DHT22;12762;51.730;5.356;2022-08-19T01:35:16;19.70;75.80
24618;DHT22;12762;51.730;5.356;2022-08-19T01:37:56;19.70;76.00
24618;DHT22;12762;51.730;5.356;2022-08-19T01:40:28;19.70;76.30
24618;DHT22;12762;51.730;5.356;2022-08-19T01:42:55;19.60;76.30
24618;DHT22;12762;51.730;5.356;2022-08-19T01:45:24;19.60;76.50
24618;DHT22;12762;51.730;5.356;2022-08-19T01:47:52;19.60;77.50
24618;DHT22;12762;51.730;5.356;2022-08-19T01:50:32;19.50;76.70
24618;DHT22;12762;51.730;5.356;2022-08-19T01:53:01;19.50;76.90
24618;DHT22;12762;51.730;5.356;2022-08-19T01:55:35;19.50;77.00
24618;DHT22;12762;51.730;5.356;2022-08-19T01:58:15;19.50;77.00
24618;DHT22;12762;51.730;5.356;2022-08-19T02:00:43;19.50;76.90
24618;DHT22;12762;51.730;5.356;2022-08-19T02:03:12;19.50;76.90
24618;DHT22;12762;51.730;5.356;2022-08-19T02:05:40;19.50;76.90
24618;DHT22;12762;51.730;5.356;2022-08-19T02:08:07;19.50;77.10
24618;DHT22;12762;51.730;5.356;2022-08-19T02:10:38;19.50;77.30
24618;DHT22;12762;51.730;5.356;2022-08-19T02:13:06;19.40;77.40
24618;DHT22;12762;51.730;5.356;2022-08-19T02:15:33;19.40;77.30
24618;DHT22;12762;51.730;5.356;2022-08-19T02:18:00;19.40;77.50
24618;DHT22;12762;51.730;5.356;2022-08-19T02:20:26;19.40;77.50
24618;DHT22;12762;51.730;5.356;2022-08-19T02:22:53;19.40;77.70
24618;DHT22;12762;51.730;5.356;2022-08-19T02:25:20;19.40;77.80
24618;DHT22;12762;51.730;5.356;2022-08-19T02:27:47;19.40;78.00
24618;DHT22;12762;51.730;5.356;2022-08-19T02:30:16;19.30;78.00
24618;DHT22;12762;51.730;5.356;2022-08-19T02:32:43;19.30;78.20
24618;DHT22;12762;51.730;5.356;2022-08-19T02:35:12;19.30;78.40
24618;DHT22;12762;51.730;5.356;2022-08-19T02:37:39;19.30;78.50
24618;DHT22;12762;51.730;5.356;2022-08-19T02:40:25;19.30;78.50
24618;DHT22;12762;51.730;5.356;2022-08-19T02:42:52;19.30;78.50
24618;DHT22;12762;51.730;5.356;2022-08-19T02:45:19;19.20;78.70
24618;DHT22;12762;51.730;5.356;2022-08-19T02:47:46;19.20;78.80
24618;DHT22;12762;51.730;5.356;2022-08-19T02:50:13;19.20;78.90
24618;DHT22;12762;51.730;5.356;2022-08-19T02:52:41;19.20;79.00
24618;DHT22;12762;51.730;5.356;2022-08-19T02:55:09;19.20;79.20
24618;DHT22;12762;51.730;5.356;2022-08-19T02:57:37;19.20;79.30
24618;DHT22;12762;51.730;5.356;2022-08-19T03:00:06;19.10;79.30
24618;DHT22;12762;51.730;5.356;2022-08-19T03:02:34;19.10;79.50
24618;DHT22;12762;51.730;5.356;2022-08-19T03:05:03;19.10;79.50
24618;DHT22;12762;51.730;5.356;2022-08-19T03:07:31;19.10;79.60
24618;DHT22;12762;51.730;5.356;2022-08-19T03:09:58;19.10;79.70
24618;DHT22;12762;51.730;5.356;2022-08-19T03:12:25;19.10;79.80
24618;DHT22;12762;51.730;5.356;2022-08-19T03:14:52;19.10;79.90
24618;DHT22;12762;51.730;5.356;2022-08-19T03:17:20;19.10;80.00
24618;DHT22;12762;51.730;5.356;2022-08-19T03:19:46;19.00;80.00
24618;DHT22;12762;51.730;5.356;2022-08-19T03:22:13;19.00;80.00
24618;DHT22;12762;51.730;5.356;2022-08-19T03:24:40;19.00;80.10
24618;DHT22;12762;51.730;5.356;2022-08-19T03:27:07;19.00;80.20
24618;DHT22;12762;51.730;5.356;2022-08-19T03:29:37;19.00;80.00
24618;DHT22;12762;51.730;5.356;2022-08-19T03:32:10;19.00;79.90
24618;DHT22;12762;51.730;5.356;2022-08-19T03:34:56;19.00;80.00
24618;DHT22;12762;51.730;5.356;2022-08-19T03:37:23;19.00;79.90
24618;DHT22;12762;51.730;5.356;2022-08-19T03:39:51;19.00;80.00
24618;DHT22;12762;51.730;5.356;2022-08-19T03:42:18;18.90;80.00
24618;DHT22;12762;51.730;5.356;2022-08-19T03:45:05;18.90;80.10
24618;DHT22;12762;51.730;5.356;2022-08-19T03:47:33;18.90;80.00
24618;DHT22;12762;51.730;5.356;2022-08-19T03:50:00;18.90;80.10
24618;DHT22;12762;51.730;5.356;2022-08-19T03:52:28;18.90;80.30
24618;DHT22;12762;51.730;5.356;2022-08-19T03:54:54;18.90;80.20
24618;DHT22;12762;51.730;5.356;2022-08-19T03:57:21;18.90;80.00
24618;DHT22;12762;51.730;5.356;2022-08-19T04:00:00;18.80;79.80
24618;DHT22;12762;51.730;5.356;2022-08-19T04:02:38;18.80;79.80
24618;DHT22;12762;51.730;5.356;2022-08-19T04:05:06;18.70;79.20
24618;DHT22;12762;51.730;5.356;2022-08-19T04:07:34;18.70;78.90
24618;DHT22;12762;51.730;5.356;2022-08-19T04:10:03;18.70;78.90
24618;DHT22;12762;51.730;5.356;2022-08-19T04:12:29;18.70;79.00
24618;DHT22;12762;51.730;5.356;2022-08-19T04:14:56;18.60;78.90
24618;DHT22;12762;51.730;5.356;2022-08-19T04:17:24;18.60;78.50
24618;DHT22;12762;51.730;5.356;2022-08-19T04:19:50;18.60;78.30
24618;DHT22;12762;51.730;5.356;2022-08-19T04:22:17;18.50;78.50
24618;DHT22;12762;51.730;5.356;2022-08-19T04:24:45;18.50;78.70
24618;DHT22;12762;51.730;5.356;2022-08-19T04:27:11;18.50;79.10
24618;DHT22;12762;51.730;5.356;2022-08-19T04:29:38;18.50;79.20
24618;DHT22;12762;51.730;5.356;2022-08-19T04:32:06;18.40;79.00
24618;DHT22;12762;51.730;5.356;2022-08-19T04:34:35;18.40;79.10
24618;DHT22;12762;51.730;5.356;2022-08-19T04:37:23;18.40;79.10
24618;DHT22;12762;51.730;5.356;2022-08-19T04:39:51;18.40;79.40
24618;DHT22;12762;51.730;5.356;2022-08-19T04:42:36;18.40;79.60
24618;DHT22;12762;51.730;5.356;2022-08-19T04:45:09;18.40;79.80
24618;DHT22;12762;51.730;5.356;2022-08-19T04:47:41;18.40;80.10
24618;DHT22;12762;51.730;5.356;2022-08-19T04:50:27;18.40;80.30
24618;DHT22;12762;51.730;5.356;2022-08-19T04:52:54;18.40;80.40
24618;DHT22;12762;51.730;5.356;2022-08-19T04:55:22;18.40;80.50
24618;DHT22;12762;51.730;5.356;2022-08-19T04:57:55;18.30;80.70
24618;DHT22;12762;51.730;5.356;2022-08-19T05:00:23;18.30;80.80
24618;DHT22;12762;51.730;5.356;2022-08-19T05:02:50;18.30;80.90
24618;DHT22;12762;51.730;5.356;2022-08-19T05:05:18;18.40;81.10
24618;DHT22;12762;51.730;5.356;2022-08-19T05:07:46;18.30;81.10
24618;DHT22;12762;51.730;5.356;2022-08-19T05:10:13;18.40;81.40
24618;DHT22;12762;51.730;5.356;2022-08-19T05:12:40;18.40;81.50
24618;DHT22;12762;51.730;5.356;2022-08-19T05:15:07;18.40;81.50
24618;DHT22;12762;51.730;5.356;2022-08-19T05:17:35;18.40;81.70
24618;DHT22;12762;51.730;5.356;2022-08-19T05:20:08;18.40;81.70
24618;DHT22;12762;51.730;5.356;2022-08-19T05:22:54;18.40;81.80
24618;DHT22;12762;51.730;5.356;2022-08-19T05:25:22;18.40;81.70
24618;DHT22;12762;51.730;5.356;2022-08-19T05:27:51;18.50;81.70
24618;DHT22;12762;51.730;5.356;2022-08-19T05:30:18;18.50;81.70
24618;DHT22;12762;51.730;5.356;2022-08-19T05:33:06;18.50;81.60
24618;DHT22;12762;51.730;5.356;2022-08-19T05:35:36;18.50;81.60
24618;DHT22;12762;51.730;5.356;2022-08-19T05:38:04;18.50;81.60
24618;DHT22;12762;51.730;5.356;2022-08-19T05:40:39;18.50;81.60
24618;DHT22;12762;51.730;5.356;2022-08-19T05:43:07;18.50;81.60
24618;DHT22;12762;51.730;5.356;2022-08-19T05:45:39;18.60;81.70
24618;DHT22;12762;51.730;5.356;2022-08-19T05:48:06;18.60;81.70
24618;DHT22;12762;51.730;5.356;2022-08-19T05:50:35;18.60;81.60
24618;DHT22;12762;51.730;5.356;2022-08-19T05:53:02;18.60;81.70
24618;DHT22;12762;51.730;5.356;2022-08-19T05:55:29;18.70;81.80
24618;DHT22;12762;51.730;5.356;2022-08-19T05:57:57;18.70;81.80
24618;DHT22;12762;51.730;5.356;2022-08-19T06:00:24;18.80;81.80
24618;DHT22;12762;51.730;5.356;2022-08-19T06:02:50;18.80;81.80
24618;DHT22;12762;51.730;5.356;2022-08-19T06:05:18;18.90;81.80
24618;DHT22;12762;51.730;5.356;2022-08-19T06:07:46;19.00;81.70
24618;DHT22;12762;51.730;5.356;2022-08-19T06:10:13;19.00;81.50
24618;DHT22;12762;51.730;5.356;2022-08-19T06:12:40;19.00;81.40
24618;DHT22;12762;51.730;5.356;2022-08-19T06:15:12;19.10;81.60
24618;DHT22;12762;51.730;5.356;2022-08-19T06:17:40;19.10;81.60
24618;DHT22;12762;51.730;5.356;2022-08-19T06:20:11;19.20;81.70
24618;DHT22;12762;51.730;5.356;2022-08-19T06:22:46;19.20;81.70
24618;DHT22;12762;51.730;5.356;2022-08-19T06:25:16;19.30;81.50
24618;DHT22;12762;51.730;5.356;2022-08-19T06:27:44;19.30;81.40
24618;DHT22;12762;51.730;5.356;2022-08-19T06:30:31;19.30;81.30
24618;DHT22;12762;51.730;5.356;2022-08-19T06:32:58;19.30;81.30
24618;DHT22;12762;51.730;5.356;2022-08-19T06:35:25;19.40;81.40
24618;DHT22;12762;51.730;5.356;2022-08-19T06:37:52;19.40;81.40
24618;DHT22;12762;51.730;5.356;2022-08-19T06:40:19;19.40;81.40
24618;DHT22;12762;51.730;5.356;2022-08-19T06:42:46;19.50;81.40
24618;DHT22;12762;51.730;5.356;2022-08-19T06:45:23;19.50;81.40
24618;DHT22;12762;51.730;5.356;2022-08-19T06:48:01;19.50;81.40
24618;DHT22;12762;51.730;5.356;2022-08-19T06:50:28;19.60;81.50
24618;DHT22;12762;51.730;5.356;2022-08-19T06:52:55;19.60;81.50
24618;DHT22;12762;51.730;5.356;2022-08-19T06:55:23;19.60;81.60
24618;DHT22;12762;51.730;5.356;2022-08-19T06:57:50;19.60;81.60
24618;DHT22;12762;51.730;5.356;2022-08-19T07:00:20;19.70;81.70
24618;DHT22;12762;51.730;5.356;2022-08-19T07:02:47;19.70;81.50
24618;DHT22;12762;51.730;5.356;2022-08-19T07:05:24;19.80;81.40
24618;DHT22;12762;51.730;5.356;2022-08-19T07:07:53;19.70;81.40
24618;DHT22;12762;51.730;5.356;2022-08-19T07:10:23;19.70;81.30
24618;DHT22;12762;51.730;5.356;2022-08-19T07:12:51;19.80;81.40
24618;DHT22;12762;51.730;5.356;2022-08-19T07:15:18;19.70;81.20
24618;DHT22;12762;51.730;5.356;2022-08-19T07:17:47;19.70;81.30
24618;DHT22;12762;51.730;5.356;2022-08-19T07:20:18;19.70;81.50
24618;DHT22;12762;51.730;5.356;2022-08-19T07:22:45;19.70;81.50
24618;DHT22;12762;51.730;5.356;2022-08-19T07:25:12;19.80;81.60
24618;DHT22;12762;51.730;5.356;2022-08-19T07:27:39;19.80;81.60
24618;DHT22;12762;51.730;5.356;2022-08-19T07:30:08;19.80;81.50
24618;DHT22;12762;51.730;5.356;2022-08-19T07:32:38;19.80;81.40
24618;DHT22;12762;51.730;5.356;2022-08-19T07:35:05;19.90;81.50
24618;DHT22;12762;51.730;5.356;2022-08-19T07:37:32;19.90;81.60
24618;DHT22;12762;51.730;5.356;2022-08-19T07:40:01;19.90;81.60
24618;DHT22;12762;51.730;5.356;2022-08-19T07:42:28;19.90;81.60
24618;DHT22;12762;51.730;5.356;2022-08-19T07:44:57;20.00;81.70
24618;DHT22;12762;51.730;5.356;2022-08-19T07:47:24;20.00;81.50
24618;DHT22;12762;51.730;5.356;2022-08-19T07:50:11;20.10;81.50
24618;DHT22;12762;51.730;5.356;2022-08-19T07:52:39;20.10;81.40
24618;DHT22;12762;51.730;5.356;2022-08-19T07:55:07;20.10;81.50
24618;DHT22;12762;51.730;5.356;2022-08-19T07:57:54;20.10;81.50
24618;DHT22;12762;51.730;5.356;2022-08-19T08:00:22;20.20;81.40
24618;DHT22;12762;51.730;5.356;2022-08-19T08:02:51;20.20;81.40
24618;DHT22;12762;51.730;5.356;2022-08-19T08:05:21;20.20;81.50
24618;DHT22;12762;51.730;5.356;2022-08-19T08:08:12;20.20;81.40
24618;DHT22;12762;51.730;5.356;2022-08-19T08:10:59;20.30;81.30
24618;DHT22;12762;51.730;5.356;2022-08-19T08:13:26;20.30;81.30
24618;DHT22;12762;51.730;5.356;2022-08-19T08:15:54;20.30;81.20
24618;DHT22;12762;51.730;5.356;2022-08-19T08:18:24;20.40;81.20
24618;DHT22;12762;51.730;5.356;2022-08-19T08:20:57;20.40;81.20
24618;DHT22;12762;51.730;5.356;2022-08-19T08:23:24;20.50;81.20
24618;DHT22;12762;51.730;5.356;2022-08-19T08:25:55;20.60;81.90
24618;DHT22;12762;51.730;5.356;2022-08-19T08:28:24;20.60;80.80
24618;DHT22;12762;51.730;5.356;2022-08-19T08:30:56;20.60;80.70
24618;DHT22;12762;51.730;5.356;2022-08-19T08:33:27;20.70;80.90
24618;DHT22;12762;51.730;5.356;2022-08-19T08:36:08;20.60;80.60
24618;DHT22;12762;51.730;5.356;2022-08-19T08:38:36;20.70;80.60
24618;DHT22;12762;51.730;5.356;2022-08-19T08:43:56;20.70;80.40
24618;DHT22;12762;51.730;5.356;2022-08-19T08:51:52;20.70;80.40
24618;DHT22;12762;51.730;5.356;2022-08-19T08:54:39;20.70;81.50
24618;DHT22;12762;51.730;5.356;2022-08-19T08:57:19;20.70;80.70
24618;DHT22;12762;51.730;5.356;2022-08-19T08:59:50;20.80;80.70
24618;DHT22;12762;51.730;5.356;2022-08-19T09:02:19;20.80;80.60
24618;DHT22;12762;51.730;5.356;2022-08-19T09:04:46;21.00;80.70
24618;DHT22;12762;51.730;5.356;2022-08-19T09:16:03;21.10;80.00
24618;DHT22;12762;51.730;5.356;2022-08-19T09:18:44;21.10;80.10
24618;DHT22;12762;51.730;5.356;2022-08-19T09:21:14;21.20;80.10
24618;DHT22;12762;51.730;5.356;2022-08-19T09:23:41;21.20;80.20
24618;DHT22;12762;51.730;5.356;2022-08-19T09:26:12;21.20;80.00
24618;DHT22;12762;51.730;5.356;2022-08-19T09:28:43;21.30;80.00
24618;DHT22;12762;51.730;5.356;2022-08-19T09:31:16;21.40;79.80
24618;DHT22;12762;51.730;5.356;2022-08-19T09:33:44;21.50;79.80
24618;DHT22;12762;51.730;5.356;2022-08-19T09:36:13;21.60;80.40
24618;DHT22;12762;51.730;5.356;2022-08-19T09:39:00;21.60;79.50
24618;DHT22;12762;51.730;5.356;2022-08-19T09:41:28;21.70;79.70
24618;DHT22;12762;51.730;5.356;2022-08-19T09:43:56;21.80;79.50
24618;DHT22;12762;51.730;5.356;2022-08-19T09:46:27;21.90;79.20
24618;DHT22;12762;51.730;5.356;2022-08-19T09:49:00;22.10;79.00
24618;DHT22;12762;51.730;5.356;2022-08-19T09:51:33;22.20;78.80
24618;DHT22;12762;51.730;5.356;2022-08-19T09:54:02;22.30;78.40
24618;DHT22;12762;51.730;5.356;2022-08-19T09:56:31;22.30;77.90
24618;DHT22;12762;51.730;5.356;2022-08-19T09:59:01;22.30;77.90
24618;DHT22;12762;51.730;5.356;2022-08-19T10:01:30;22.30;78.00
24618;DHT22;12762;51.730;5.356;2022-08-19T10:03:58;22.30;77.90
24618;DHT22;12762;51.730;5.356;2022-08-19T10:06:27;22.40;77.80
24618;DHT22;12762;51.730;5.356;2022-08-19T10:09:13;22.30;78.40
24618;DHT22;12762;51.730;5.356;2022-08-19T10:11:43;22.30;77.60
24618;DHT22;12762;51.730;5.356;2022-08-19T10:14:20;22.40;77.80
24618;DHT22;12762;51.730;5.356;2022-08-19T10:16:50;22.40;77.50
24618;DHT22;12762;51.730;5.356;2022-08-19T10:19:18;22.40;77.40
24618;DHT22;12762;51.730;5.356;2022-08-19T10:21:52;22.40;77.40
24618;DHT22;12762;51.730;5.356;2022-08-19T10:24:19;22.30;78.20
24618;DHT22;12762;51.730;5.356;2022-08-19T10:26:47;22.30;77.50
24618;DHT22;12762;51.730;5.356;2022-08-19T10:29:25;22.40;77.50
24618;DHT22;12762;51.730;5.356;2022-08-19T10:32:03;22.30;77.20
24618;DHT22;12762;51.730;5.356;2022-08-19T10:34:38;22.40;77.30
24618;DHT22;12762;51.730;5.356;2022-08-19T10:37:15;22.40;77.20
24618;DHT22;12762;51.730;5.356;2022-08-19T10:39:49;22.50;77.30
24618;DHT22;12762;51.730;5.356;2022-08-19T10:42:18;22.60;77.10
24618;DHT22;12762;51.730;5.356;2022-08-19T10:44:45;22.70;76.90
24618;DHT22;12762;51.730;5.356;2022-08-19T10:47:13;22.90;76.90
24618;DHT22;12762;51.730;5.356;2022-08-19T10:49:50;23.10;76.80
24618;DHT22;12762;51.730;5.356;2022-08-19T10:52:41;23.30;76.50
24618;DHT22;12762;51.730;5.356;2022-08-19T10:55:20;23.60;75.90
24618;DHT22;12762;51.730;5.356;2022-08-19T10:58:17;23.80;75.30
24618;DHT22;12762;51.730;5.356;2022-08-19T11:00:57;24.00;75.00
24618;DHT22;12762;51.730;5.356;2022-08-19T11:03:25;24.20;74.40
24618;DHT22;12762;51.730;5.356;2022-08-19T11:06:02;24.30;73.90
24618;DHT22;12762;51.730;5.356;2022-08-19T11:08:29;24.40;73.60
24618;DHT22;12762;51.730;5.356;2022-08-19T11:11:00;24.40;73.60
24618;DHT22;12762;51.730;5.356;2022-08-19T11:13:33;24.40;73.20
24618;DHT22;12762;51.730;5.356;2022-08-19T11:16:14;24.50;73.30
24618;DHT22;12762;51.730;5.356;2022-08-19T11:18:48;24.60;73.10
24618;DHT22;12762;51.730;5.356;2022-08-19T11:21:24;24.60;72.60
24618;DHT22;12762;51.730;5.356;2022-08-19T11:23:53;24.60;72.60
24618;DHT22;12762;51.730;5.356;2022-08-19T11:26:21;24.70;72.30
24618;DHT22;12762;51.730;5.356;2022-08-19T11:28:48;24.80;72.20
24618;DHT22;12762;51.730;5.356;2022-08-19T11:31:18;24.90;72.20
24618;DHT22;12762;51.730;5.356;2022-08-19T11:33:46;25.10;71.80
24618;DHT22;12762;51.730;5.356;2022-08-19T11:36:13;25.30;71.40
24618;DHT22;12762;51.730;5.356;2022-08-19T11:38:41;25.30;71.30
24618;DHT22;12762;51.730;5.356;2022-08-19T11:41:08;25.40;70.90
24618;DHT22;12762;51.730;5.356;2022-08-19T11:43:35;25.50;71.10
24618;DHT22;12762;51.730;5.356;2022-08-19T11:46:08;25.60;70.40
24618;DHT22;12762;51.730;5.356;2022-08-19T11:48:36;25.70;69.80
24618;DHT22;12762;51.730;5.356;2022-08-19T11:51:06;25.70;69.30
24618;DHT22;12762;51.730;5.356;2022-08-19T11:53:36;25.70;69.30
24618;DHT22;12762;51.730;5.356;2022-08-19T11:56:04;25.80;69.50
24618;DHT22;12762;51.730;5.356;2022-08-19T11:58:32;26.00;68.70
24618;DHT22;12762;51.730;5.356;2022-08-19T12:01:01;26.30;68.70
24618;DHT22;12762;51.730;5.356;2022-08-19T12:03:28;26.40;67.90
24618;DHT22;12762;51.730;5.356;2022-08-19T12:05:55;26.40;68.00
24618;DHT22;12762;51.730;5.356;2022-08-19T12:08:22;26.60;67.90
24618;DHT22;12762;51.730;5.356;2022-08-19T12:10:49;26.80;67.70
24618;DHT22;12762;51.730;5.356;2022-08-19T12:13:19;27.00;67.00
24618;DHT22;12762;51.730;5.356;2022-08-19T12:15:47;27.00;66.70
24618;DHT22;12762;51.730;5.356;2022-08-19T12:18:14;27.20;66.20
24618;DHT22;12762;51.730;5.356;2022-08-19T12:20:42;27.40;65.80
24618;DHT22;12762;51.730;5.356;2022-08-19T12:23:09;27.40;64.90
24618;DHT22;12762;51.730;5.356;2022-08-19T12:25:42;27.40;64.50
24618;DHT22;12762;51.730;5.356;2022-08-19T12:28:19;27.40;64.90
24618;DHT22;12762;51.730;5.356;2022-08-19T12:30:48;27.40;64.60
24618;DHT22;12762;51.730;5.356;2022-08-19T12:33:15;27.30;64.40
24618;DHT22;12762;51.730;5.356;2022-08-19T12:35:43;27.20;64.40
24618;DHT22;12762;51.730;5.356;2022-08-19T12:38:12;27.00;64.90
24618;DHT22;12762;51.730;5.356;2022-08-19T12:40:39;26.80;64.80
24618;DHT22;12762;51.730;5.356;2022-08-19T12:43:08;26.50;65.20
24618;DHT22;12762;51.730;5.356;2022-08-19T12:45:35;26.40;65.70
24618;DHT22;12762;51.730;5.356;2022-08-19T12:48:03;26.30;65.80
24618;DHT22;12762;51.730;5.356;2022-08-19T12:50:51;26.10;66.10
24618;DHT22;12762;51.730;5.356;2022-08-19T12:53:18;26.00;66.60
24618;DHT22;12762;51.730;5.356;2022-08-19T12:55:44;26.00;66.60
24618;DHT22;12762;51.730;5.356;2022-08-19T12:58:14;26.00;66.80
24618;DHT22;12762;51.730;5.356;2022-08-19T13:00:41;26.00;66.90
24618;DHT22;12762;51.730;5.356;2022-08-19T13:03:08;26.00;66.90
24618;DHT22;12762;51.730;5.356;2022-08-19T13:05:36;26.00;66.80
24618;DHT22;12762;51.730;5.356;2022-08-19T13:08:04;26.00;66.70
24618;DHT22;12762;51.730;5.356;2022-08-19T13:10:33;26.10;66.50
24618;DHT22;12762;51.730;5.356;2022-08-19T13:13:03;26.20;66.20
24618;DHT22;12762;51.730;5.356;2022-08-19T13:15:37;26.20;66.00
24618;DHT22;12762;51.730;5.356;2022-08-19T13:18:07;26.20;66.00
24618;DHT22;12762;51.730;5.356;2022-08-19T13:20:37;26.20;66.00
24618;DHT22;12762;51.730;5.356;2022-08-19T13:23:04;26.10;66.30
24618;DHT22;12762;51.730;5.356;2022-08-19T13:25:32;26.00;66.30
24618;DHT22;12762;51.730;5.356;2022-08-19T13:27:59;25.90;66.50
24618;DHT22;12762;51.730;5.356;2022-08-19T13:30:27;25.80;66.70
24618;DHT22;12762;51.730;5.356;2022-08-19T13:33:13;25.80;67.10
24618;DHT22;12762;51.730;5.356;2022-08-19T13:35:49;25.70;67.20
24618;DHT22;12762;51.730;5.356;2022-08-19T13:38:20;25.70;67.40
24618;DHT22;12762;51.730;5.356;2022-08-19T13:40:48;25.60;67.80
24618;DHT22;12762;51.730;5.356;2022-08-19T13:43:17;25.60;68.10
24618;DHT22;12762;51.730;5.356;2022-08-19T13:45:53;25.60;68.20
24618;DHT22;12762;51.730;5.356;2022-08-19T13:48:24;25.70;68.20
24618;DHT22;12762;51.730;5.356;2022-08-19T13:50:53;25.80;68.00
24618;DHT22;12762;51.730;5.356;2022-08-19T13:53:22;25.90;68.70
24618;DHT22;12762;51.730;5.356;2022-08-19T13:55:53;26.00;67.50
24618;DHT22;12762;51.730;5.356;2022-08-19T13:58:20;26.00;67.10
24618;DHT22;12762;51.730;5.356;2022-08-19T14:00:47;26.00;67.10
24618;DHT22;12762;51.730;5.356;2022-08-19T14:03:15;26.00;67.10
24618;DHT22;12762;51.730;5.356;2022-08-19T14:05:42;26.10;67.10
24618;DHT22;12762;51.730;5.356;2022-08-19T14:08:09;26.10;67.00
24618;DHT22;12762;51.730;5.356;2022-08-19T14:10:36;26.10;66.80
24618;DHT22;12762;51.730;5.356;2022-08-19T14:13:03;26.20;66.80
24618;DHT22;12762;51.730;5.356;2022-08-19T14:15:31;26.30;66.80
24618;DHT22;12762;51.730;5.356;2022-08-19T14:17:58;26.30;67.00
24618;DHT22;12762;51.730;5.356;2022-08-19T14:20:26;26.50;66.80
24618;DHT22;12762;51.730;5.356;2022-08-19T14:22:54;26.60;66.50
24618;DHT22;12762;51.730;5.356;2022-08-19T14:25:26;26.80;66.10
24618;DHT22;12762;51.730;5.356;2022-08-19T14:27:54;26.80;65.80
24618;DHT22;12762;51.730;5.356;2022-08-19T14:30:25;26.80;65.60
24618;DHT22;12762;51.730;5.356;2022-08-19T14:32:56;26.80;65.80
24618;DHT22;12762;51.730;5.356;2022-08-19T14:35:25;27.00;65.80
24618;DHT22;12762;51.730;5.356;2022-08-19T14:37:54;27.10;65.50
24618;DHT22;12762;51.730;5.356;2022-08-19T14:40:26;27.20;65.10
24618;DHT22;12762;51.730;5.356;2022-08-19T14:43:00;27.10;64.60
24618;DHT22;12762;51.730;5.356;2022-08-19T14:45:36;27.00;65.00
24618;DHT22;12762;51.730;5.356;2022-08-19T14:48:08;27.00;64.80
24618;DHT22;12762;51.730;5.356;2022-08-19T14:50:45;27.00;65.20
24618;DHT22;12762;51.730;5.356;2022-08-19T14:53:12;27.20;65.70
24618;DHT22;12762;51.730;5.356;2022-08-19T14:55:44;27.30;65.00
24618;DHT22;12762;51.730;5.356;2022-08-19T14:58:12;27.40;64.50
24618;DHT22;12762;51.730;5.356;2022-08-19T15:00:57;27.50;63.90
24618;DHT22;12762;51.730;5.356;2022-08-19T15:03:25;27.40;63.50
24618;DHT22;12762;51.730;5.356;2022-08-19T15:05:53;27.40;63.40
24618;DHT22;12762;51.730;5.356;2022-08-19T15:08:20;27.30;63.40
24618;DHT22;12762;51.730;5.356;2022-08-19T15:10:49;27.20;63.60
24618;DHT22;12762;51.730;5.356;2022-08-19T15:13:16;27.10;63.60
24618;DHT22;12762;51.730;5.356;2022-08-19T15:15:46;26.90;63.70
24618;DHT22;12762;51.730;5.356;2022-08-19T15:18:14;26.80;63.90
24618;DHT22;12762;51.730;5.356;2022-08-19T15:20:41;26.60;64.30
24618;DHT22;12762;51.730;5.356;2022-08-19T15:23:13;26.50;64.70
24618;DHT22;12762;51.730;5.356;2022-08-19T15:25:41;26.40;64.90
24618;DHT22;12762;51.730;5.356;2022-08-19T15:28:09;26.20;65.20
24618;DHT22;12762;51.730;5.356;2022-08-19T15:30:40;26.20;65.60
24618;DHT22;12762;51.730;5.356;2022-08-19T15:33:07;26.00;65.90
24618;DHT22;12762;51.730;5.356;2022-08-19T15:35:33;25.80;66.60
24618;DHT22;12762;51.730;5.356;2022-08-19T15:38:00;25.70;67.20
24618;DHT22;12762;51.730;5.356;2022-08-19T15:40:27;25.60;67.80
24618;DHT22;12762;51.730;5.356;2022-08-19T15:42:56;25.60;67.90
24618;DHT22;12762;51.730;5.356;2022-08-19T15:45:24;25.40;67.90
24618;DHT22;12762;51.730;5.356;2022-08-19T15:47:59;25.30;68.30
24618;DHT22;12762;51.730;5.356;2022-08-19T15:50:27;25.20;68.90
24618;DHT22;12762;51.730;5.356;2022-08-19T15:53:00;25.20;69.30
24618;DHT22;12762;51.730;5.356;2022-08-19T15:55:34;25.10;69.60
24618;DHT22;12762;51.730;5.356;2022-08-19T15:58:07;25.00;70.00
24618;DHT22;12762;51.730;5.356;2022-08-19T16:01:00;25.00;70.60
24618;DHT22;12762;51.730;5.356;2022-08-19T16:03:48;24.90;70.70
24618;DHT22;12762;51.730;5.356;2022-08-19T16:06:52;24.90;70.90
24618;DHT22;12762;51.730;5.356;2022-08-19T16:09:21;24.80;71.10